createdAt,value
2022-09-03T00:01:57.926Z,21.88
2022-09-03T00:04:47.140Z,21.71
2022-09-03T00:07:25.638Z,21.71
2022-09-03T00:10:00.149Z,22.28
2022-09-03T00:12:32.174Z,22.13
2022-09-03T00:15:11.215Z,22.10
2022-09-03T00:18:15.126Z,22.13
2022-09-03T00:20:49.231Z,22.08
2022-09-03T00:23:21.709Z,21.85
2022-09-03T00:26:01.791Z,21.55
2022-09-03T00:28:42.636Z,21.84
2022-09-03T00:31:20.583Z,21.66
2022-09-03T00:33:49.376Z,21.56
2022-09-03T00:36:42.399Z,21.41
2022-09-03T00:39:13.878Z,21.45
2022-09-03T00:41:59.217Z,21.82
2022-09-03T00:44:37.694Z,21.04
2022-09-03T00:47:34.753Z,21.47
2022-09-03T00:50:32.774Z,21.59
2022-09-03T00:53:14.436Z,21.40
2022-09-03T00:55:57.030Z,21.41
2022-09-03T00:58:39.411Z,21.36
2022-09-03T01:01:15.268Z,20.99
2022-09-03T01:03:59.811Z,21.12
2022-09-03T01:06:32.248Z,20.81
2022-09-03T01:09:19.016Z,21.22
2022-09-03T01:12:14.764Z,21.08
2022-09-03T01:15:01.240Z,21.04
2022-09-03T01:17:46.363Z,21.47
2022-09-03T01:20:12.827Z,21.30
2022-09-03T01:22:58.586Z,21.10
2022-09-03T01:25:32.222Z,20.94
2022-09-03T01:28:16.087Z,21.26
2022-09-03T01:30:47.766Z,21.23
2022-09-03T01:33:28.112Z,21.18
2022-09-03T01:36:11.432Z,21.45
2022-09-03T01:39:02.929Z,21.22
2022-09-03T01:41:51.370Z,20.90
2022-09-03T01:44:17.811Z,20.98
2022-09-03T01:46:46.221Z,21.01
2022-09-03T01:49:25.875Z,21.16
2022-09-03T01:52:26.258Z,20.63
2022-09-03T01:55:28.982Z,20.65
2022-09-03T01:58:21.523Z,20.97
2022-09-03T02:00:56.766Z,21.03
2022-09-03T02:03:25.917Z,20.57
2022-09-03T02:05:54.993Z,20.92
2022-09-03T02:08:21.589Z,20.95
2022-09-03T02:11:02.113Z,20.63
2022-09-03T02:13:49.589Z,20.48
2022-09-03T02:16:20.358Z,20.71
2022-09-03T02:18:51.235Z,20.80
2022-09-03T02:21:20.636Z,20.96
2022-09-03T02:23:48.492Z,20.97
2022-09-03T02:26:18.815Z,21.21
2022-09-03T02:28:46.075Z,21.11
2022-09-03T02:31:12.886Z,21.08
2022-09-03T02:33:42.605Z,21.41
2022-09-03T02:36:12.009Z,21.39
2022-09-03T02:38:41.898Z,21.11
2022-09-03T02:41:08.562Z,20.84
2022-09-03T02:43:59.503Z,20.68
2022-09-03T02:46:38.618Z,20.53
2022-09-03T02:49:06.278Z,20.74
2022-09-03T02:51:38.941Z,20.72
2022-09-03T02:54:06.553Z,20.75
2022-09-03T02:56:33.579Z,20.77
2022-09-03T02:59:00.445Z,20.70
2022-09-03T03:01:27.400Z,20.77
2022-09-03T03:03:54.315Z,20.84
2022-09-03T03:06:21.580Z,20.84
2022-09-03T03:08:49.967Z,20.83
2022-09-03T03:11:18.456Z,20.91
2022-09-03T03:13:47.915Z,21.20
2022-09-03T03:16:16.411Z,21.40
2022-09-03T03:18:46.302Z,21.29
2022-09-03T03:21:16.166Z,21.05
2022-09-03T03:23:43.417Z,20.83
2022-09-03T03:26:13.900Z,20.64
2022-09-03T03:28:42.471Z,20.74
2022-09-03T03:31:11.329Z,20.82
2022-09-03T03:33:38.526Z,20.74
2022-09-03T03:36:10.366Z,20.64
2022-09-03T03:38:37.834Z,20.55
2022-09-03T03:41:22.189Z,20.53
2022-09-03T03:43:54.116Z,20.85
2022-09-03T03:46:22.547Z,20.67
2022-09-03T03:48:50.094Z,20.28
2022-09-03T03:51:17.415Z,20.15
2022-09-03T03:53:44.412Z,20.03
2022-09-03T03:56:13.583Z,20.13
2022-09-03T03:58:43.944Z,20.11
2022-09-03T04:01:16.798Z,20.32
2022-09-03T04:03:44.144Z,20.53
2022-09-03T04:06:13.214Z,20.75
2022-09-03T04:08:41.941Z,20.70
2022-09-03T04:11:11.961Z,20.69
2022-09-03T04:13:43.474Z,20.67
2022-09-03T04:16:12.745Z,20.52
2022-09-03T04:18:40.745Z,20.69
2022-09-03T04:21:13.757Z,20.83
2022-09-03T04:23:43.355Z,20.91
2022-09-03T04:26:12.886Z,21.01
2022-09-03T04:28:40.253Z,20.88
2022-09-03T04:31:09.310Z,20.89
2022-09-03T04:33:38.327Z,21.05
2022-09-03T04:36:11.378Z,20.97
2022-09-03T04:38:41.344Z,20.91
2022-09-03T04:41:10.937Z,20.85
2022-09-03T04:43:39.020Z,21.04
2022-09-03T04:46:16.134Z,21.06
2022-09-03T04:48:44.041Z,20.90
2022-09-03T04:51:13.504Z,20.78
2022-09-03T04:53:42.188Z,20.68
2022-09-03T04:56:20.397Z,20.51
2022-09-03T04:58:51.031Z,20.61
2022-09-03T05:01:20.800Z,20.65
2022-09-03T05:03:48.068Z,20.65
2022-09-03T05:06:17.339Z,20.68
2022-09-03T05:08:51.682Z,20.75
2022-09-03T05:11:19.065Z,20.80
2022-09-03T05:13:50.486Z,20.68
2022-09-03T05:16:18.800Z,20.64
2022-09-03T05:18:46.856Z,20.64
2022-09-03T05:21:16.227Z,20.58
2022-09-03T05:23:45.811Z,20.59
2022-09-03T05:26:36.537Z,20.70
2022-09-03T05:29:10.591Z,20.69
2022-09-03T05:31:39.247Z,20.67
2022-09-03T05:34:07.283Z,20.71
2022-09-03T05:36:36.302Z,20.64
2022-09-03T05:39:04.617Z,20.63
2022-09-03T05:41:33.985Z,20.82
2022-09-03T05:44:00.833Z,20.74
2022-09-03T05:46:33.299Z,20.74
2022-09-03T05:49:01.983Z,20.75
2022-09-03T05:51:29.548Z,20.87
2022-09-03T05:53:56.285Z,20.73
2022-09-03T05:56:25.375Z,20.63
2022-09-03T05:58:54.313Z,20.60
2022-09-03T06:01:23.937Z,20.73
2022-09-03T06:03:59.401Z,20.80
2022-09-03T06:06:27.343Z,20.80
2022-09-03T06:08:55.499Z,20.82
2022-09-03T06:11:24.271Z,20.93
2022-09-03T06:13:50.987Z,20.93
2022-09-03T06:16:17.615Z,21.00
2022-09-03T06:18:44.474Z,21.08
2022-09-03T06:21:11.078Z,21.09
2022-09-03T06:23:41.046Z,21.13
2022-09-03T06:26:15.013Z,21.27
2022-09-03T06:28:43.865Z,21.02
2022-09-03T06:31:15.653Z,21.03
2022-09-03T06:33:42.739Z,21.01
2022-09-03T06:36:13.035Z,21.04
2022-09-03T06:38:39.991Z,21.09
2022-09-03T06:41:14.097Z,21.22
2022-09-03T06:43:41.883Z,21.24
2022-09-03T06:46:17.511Z,21.40
2022-09-03T06:48:45.532Z,21.49
2022-09-03T06:51:17.762Z,21.50
2022-09-03T06:53:48.293Z,21.38
2022-09-03T06:56:18.188Z,21.40
2022-09-03T06:58:48.741Z,21.36
2022-09-03T07:01:20.792Z,21.39
2022-09-03T07:03:52.411Z,21.56
2022-09-03T07:06:20.025Z,21.73
2022-09-03T07:08:47.479Z,21.86
2022-09-03T07:11:18.140Z,21.88
2022-09-03T07:13:47.694Z,22.08
2022-09-03T07:16:17.396Z,22.22
2022-09-03T07:18:45.200Z,22.21
2022-09-03T07:21:14.542Z,22.19
2022-09-03T07:23:41.985Z,22.23
2022-09-03T07:26:12.888Z,22.29
2022-09-03T07:28:40.889Z,22.25
2022-09-03T07:31:11.809Z,22.40
2022-09-03T07:33:39.271Z,22.48
2022-09-03T07:36:08.731Z,22.41
2022-09-03T07:38:36.191Z,22.60
2022-09-03T07:41:09.238Z,22.59
2022-09-03T07:43:40.078Z,22.66
2022-09-03T07:46:23.290Z,22.56
2022-09-03T07:48:56.016Z,22.63
2022-09-03T07:51:26.649Z,22.60
2022-09-03T07:53:56.192Z,22.50
2022-09-03T07:56:22.848Z,22.71
2022-09-03T07:58:50.293Z,22.62
2022-09-03T08:01:23.847Z,22.66
2022-09-03T08:03:53.391Z,22.66
2022-09-03T08:06:23.012Z,22.78
2022-09-03T08:09:04.446Z,22.55
2022-09-03T08:11:31.557Z,22.55
2022-09-03T08:14:03.035Z,22.78
2022-09-03T08:16:32.332Z,23.01
2022-09-03T08:18:59.730Z,23.28
2022-09-03T08:21:27.616Z,23.05
2022-09-03T08:24:02.557Z,23.31
2022-09-03T08:26:31.893Z,23.43
2022-09-03T08:28:59.165Z,23.45
2022-09-03T08:31:27.971Z,23.54
2022-09-03T08:33:56.615Z,23.54
2022-09-03T08:36:26.901Z,23.39
2022-09-03T08:38:55.276Z,23.10
2022-09-03T08:41:44.424Z,23.06
2022-09-03T08:44:25.388Z,23.37
2022-09-03T08:47:10.950Z,23.37
2022-09-03T08:49:53.175Z,23.51
2022-09-03T08:52:28.975Z,23.08
2022-09-03T08:55:04.419Z,22.87
2022-09-03T08:57:37.896Z,22.74
2022-09-03T09:00:04.871Z,22.51
2022-09-03T09:02:57.584Z,22.61
2022-09-03T09:05:38.970Z,22.92
2022-09-03T09:08:17.646Z,22.51
2022-09-03T09:10:58.636Z,22.74
2022-09-03T09:13:39.472Z,22.59
2022-09-03T09:16:27.848Z,22.83
2022-09-03T09:19:11.438Z,22.66
2022-09-03T09:21:46.306Z,22.47
2022-09-03T09:24:28.537Z,22.79
2022-09-03T09:27:01.712Z,23.07
2022-09-03T09:29:37.425Z,23.19
2022-09-03T09:32:07.417Z,23.33
2022-09-03T09:34:37.090Z,22.98
2022-09-03T09:37:11.850Z,23.21
2022-09-03T09:39:38.491Z,23.10
2022-09-03T09:42:12.034Z,23.32
2022-09-03T09:44:41.227Z,23.32
2022-09-03T09:47:16.394Z,23.20
2022-09-03T09:49:46.174Z,22.85
2022-09-03T09:52:16.295Z,23.11
2022-09-03T09:54:48.202Z,23.20
2022-09-03T09:57:23.421Z,23.34
2022-09-03T09:59:50.368Z,23.61
2022-09-03T10:02:28.797Z,23.70
2022-09-03T10:05:02.208Z,23.48
2022-09-03T10:07:32.874Z,23.40
2022-09-03T10:10:18.432Z,23.32
2022-09-03T10:13:01.653Z,23.26
2022-09-03T10:15:46.612Z,23.72
2022-09-03T10:18:29.059Z,23.15
2022-09-03T10:21:06.692Z,23.36
2022-09-03T10:24:16.133Z,23.92
2022-09-03T10:26:46.349Z,24.24
2022-09-03T10:29:20.165Z,24.24
2022-09-03T10:32:13.070Z,24.54
2022-09-03T10:35:01.372Z,24.89
2022-09-03T10:37:47.302Z,25.05
2022-09-03T10:40:40.246Z,24.78
2022-09-03T10:43:22.094Z,24.64
2022-09-03T10:46:07.664Z,24.77
2022-09-03T10:48:49.921Z,24.70
2022-09-03T10:51:39.051Z,24.54
2022-09-03T10:54:26.325Z,24.55
2022-09-03T10:57:07.771Z,24.26
2022-09-03T10:59:44.777Z,24.26
2022-09-03T11:02:35.232Z,24.27
2022-09-03T11:05:07.649Z,24.47
2022-09-03T11:07:43.867Z,24.46
2022-09-03T11:10:30.644Z,24.10
2022-09-03T11:13:30.878Z,24.56
2022-09-03T11:16:12.169Z,24.95
2022-09-03T11:18:47.074Z,24.92
2022-09-03T11:21:16.596Z,25.04
2022-09-03T11:23:55.171Z,24.92
2022-09-03T11:26:26.352Z,24.98
2022-09-03T11:29:06.952Z,24.91
2022-09-03T11:31:50.822Z,24.89
2022-09-03T11:34:45.569Z,25.11
2022-09-03T11:37:27.403Z,25.00
2022-09-03T11:40:18.821Z,24.75
2022-09-03T11:42:46.372Z,25.12
2022-09-03T11:45:34.993Z,25.11
2022-09-03T11:48:01.749Z,24.84
2022-09-03T11:50:30.989Z,25.08
2022-09-03T11:53:16.348Z,24.93
2022-09-03T11:56:14.626Z,25.05
2022-09-03T11:58:43.500Z,24.96
2022-09-03T12:01:16.430Z,24.83
2022-09-03T12:03:51.427Z,25.26
2022-09-03T12:06:30.465Z,25.18
2022-09-03T12:09:22.944Z,25.17
2022-09-03T12:12:14.774Z,24.64
2022-09-03T12:15:03.372Z,25.32
2022-09-03T12:18:16.055Z,25.54
2022-09-03T12:20:43.659Z,25.64
2022-09-03T12:23:15.223Z,25.79
2022-09-03T12:25:47.494Z,25.74
2022-09-03T12:28:22.744Z,25.73
2022-09-03T12:31:20.372Z,25.53
2022-09-03T12:34:01.258Z,25.72
2022-09-03T12:36:42.131Z,25.30
2022-09-03T12:39:16.229Z,25.68
2022-09-03T12:41:55.456Z,25.74
2022-09-03T12:44:49.718Z,25.73
2022-09-03T12:50:11.966Z,25.66
2022-09-03T12:53:04.749Z,25.46
2022-09-03T12:55:43.776Z,25.42
2022-09-03T12:58:14.138Z,25.95
2022-09-03T13:00:51.128Z,25.94
2022-09-03T13:03:45.998Z,25.86
2022-09-03T13:06:16.004Z,25.81
2022-09-03T13:08:59.108Z,26.11
2022-09-03T13:11:26.398Z,26.27
2022-09-03T13:14:26.523Z,26.14
2022-09-03T13:16:55.761Z,26.32
2022-09-03T13:19:36.951Z,26.23
2022-09-03T13:22:12.688Z,26.44
2022-09-03T13:24:49.512Z,26.42
2022-09-03T13:27:47.471Z,26.34
2022-09-03T13:30:20.682Z,25.96
2022-09-03T13:33:07.457Z,26.37
2022-09-03T13:35:40.418Z,26.58
2022-09-03T13:38:39.229Z,26.55
2022-09-03T13:41:20.320Z,26.21
2022-09-03T13:44:03.136Z,26.53
2022-09-03T13:46:36.566Z,26.38
2022-09-03T13:49:36.347Z,26.51
2022-09-03T13:52:07.832Z,26.43
2022-09-03T13:54:49.046Z,26.44
2022-09-03T13:57:30.422Z,26.20
2022-09-03T14:00:07.488Z,26.59
2022-09-03T14:02:41.056Z,26.38
2022-09-03T14:05:59.241Z,26.55
2022-09-03T14:08:49.131Z,26.75
2022-09-03T14:11:18.607Z,26.52
2022-09-03T14:14:10.610Z,26.72
2022-09-03T14:17:28.383Z,26.63
2022-09-03T14:20:04.513Z,27.02
2022-09-03T14:23:02.063Z,26.98
2022-09-03T14:25:28.958Z,26.83
2022-09-03T14:28:12.687Z,26.52
2022-09-03T14:30:48.848Z,26.57
2022-09-03T14:33:47.057Z,26.77
2022-09-03T14:36:39.081Z,26.81
2022-09-03T14:39:32.635Z,26.94
2022-09-03T14:42:24.597Z,26.81
2022-09-03T14:45:17.032Z,26.73
2022-09-03T14:47:55.639Z,26.63
2022-09-03T14:50:55.014Z,26.69
2022-09-03T14:53:38.624Z,26.80
2022-09-03T14:56:10.815Z,26.73
2022-09-03T14:59:07.555Z,26.93
2022-09-03T15:01:39.344Z,27.22
2022-09-03T15:04:09.256Z,27.16
2022-09-03T15:07:01.895Z,27.32
2022-09-03T15:09:40.415Z,27.29
2022-09-03T15:12:36.088Z,27.61
2022-09-03T15:15:13.549Z,26.91
2022-09-03T15:17:46.094Z,26.86
2022-09-03T15:20:23.910Z,26.84
2022-09-03T15:22:58.012Z,26.91
2022-09-03T15:25:41.185Z,27.40
2022-09-03T15:28:22.973Z,27.18
2022-09-03T15:31:01.850Z,27.19
2022-09-03T15:33:43.479Z,27.25
2022-09-03T15:36:22.554Z,27.35
2022-09-03T15:39:13.513Z,27.26
2022-09-03T15:42:01.193Z,26.69
2022-09-03T15:44:37.681Z,27.00
2022-09-03T15:47:14.064Z,26.90
2022-09-03T15:50:01.581Z,27.07
2022-09-03T15:52:33.585Z,27.01
2022-09-03T15:55:30.135Z,27.14
2022-09-03T15:58:18.844Z,26.80
2022-09-03T16:01:00.143Z,26.98
2022-09-03T16:03:56.073Z,26.98
2022-09-03T16:06:52.251Z,26.88
2022-09-03T16:09:45.500Z,27.00
2022-09-03T16:12:45.975Z,27.11
2022-09-03T16:15:15.548Z,27.50
2022-09-03T16:17:56.967Z,27.97
2022-09-03T16:20:35.178Z,27.65
2022-09-03T16:23:08.534Z,27.69
2022-09-03T16:26:12.687Z,27.81
2022-09-03T16:29:00.877Z,27.23
2022-09-03T16:31:36.624Z,27.35
2022-09-03T16:34:21.793Z,27.32
2022-09-03T16:36:57.111Z,27.39
2022-09-03T16:40:24.523Z,28.51
2022-09-03T16:43:41.071Z,28.75
2022-09-03T16:46:20.223Z,28.10
2022-09-03T16:49:05.027Z,27.95
2022-09-03T16:52:16.371Z,28.53
2022-09-03T16:55:18.855Z,28.58
2022-09-03T16:57:54.730Z,28.05
2022-09-03T17:00:22.574Z,27.86
2022-09-03T17:03:26.132Z,27.98
2022-09-03T17:06:09.186Z,27.71
2022-09-03T17:09:03.182Z,27.97
2022-09-03T17:11:39.993Z,28.23
2022-09-03T17:14:26.699Z,28.43
2022-09-03T17:17:02.198Z,28.06
2022-09-03T17:19:51.639Z,27.60
2022-09-03T17:22:55.331Z,27.81
2022-09-03T17:25:24.900Z,27.42
2022-09-03T17:28:12.929Z,27.33
2022-09-03T17:30:46.139Z,27.36
2022-09-03T17:33:27.023Z,27.41
2022-09-03T17:36:16.174Z,27.77
2022-09-03T17:39:08.773Z,28.12
2022-09-03T17:41:55.558Z,28.09
2022-09-03T17:44:47.506Z,27.93
2022-09-03T17:47:51.367Z,27.99
2022-09-03T17:50:51.169Z,27.91
2022-09-03T17:53:29.590Z,27.36
2022-09-03T17:55:58.604Z,27.44
2022-09-03T17:58:32.252Z,27.38
2022-09-03T18:01:07.979Z,27.20
2022-09-03T18:03:54.465Z,26.87
2022-09-03T18:06:37.204Z,26.86
2022-09-03T18:09:12.417Z,26.71
2022-09-03T18:11:41.616Z,26.68
2022-09-03T18:14:15.895Z,26.64
2022-09-03T18:17:03.134Z,26.49
2022-09-03T18:20:08.859Z,26.33
2022-09-03T18:23:08.788Z,26.44
2022-09-03T18:25:57.089Z,26.25
2022-09-03T18:29:02.574Z,26.14
2022-09-03T18:31:47.858Z,26.14
2022-09-03T18:34:32.984Z,26.07
2022-09-03T18:37:19.300Z,26.01
2022-09-03T18:40:05.833Z,25.99
2022-09-03T18:43:08.518Z,25.88
2022-09-03T18:49:31.955Z,25.90
2022-09-03T18:52:34.442Z,25.82
2022-09-03T18:55:41.808Z,25.81
2022-09-03T18:58:52.549Z,25.69
2022-09-03T19:01:52.972Z,25.68
2022-09-03T19:04:56.185Z,25.64
2022-09-03T19:08:00.273Z,25.60
2022-09-03T19:10:59.240Z,25.63
2022-09-03T19:13:56.722Z,25.64
2022-09-03T19:16:55.374Z,25.61
2022-09-03T19:20:08.780Z,25.61
2022-09-03T19:22:59.170Z,25.62
2022-09-03T19:25:47.184Z,25.58
2022-09-03T19:28:41.691Z,25.57
2022-09-03T19:31:45.637Z,25.50
2022-09-03T19:34:36.627Z,25.48
2022-09-03T19:37:34.083Z,25.44
2022-09-03T19:40:32.141Z,25.44
2022-09-03T19:43:39.023Z,25.45
2022-09-03T19:47:21.785Z,25.47
2022-09-03T19:50:13.316Z,25.46
2022-09-03T19:53:11.329Z,25.53
2022-09-03T19:56:11.564Z,25.58
2022-09-03T19:59:01.443Z,25.58
2022-09-03T20:01:52.405Z,25.52
2022-09-03T20:04:46.660Z,25.44
2022-09-03T20:07:31.893Z,25.35
2022-09-03T20:10:21.300Z,25.35
2022-09-03T20:13:10.422Z,25.31
2022-09-03T20:15:49.532Z,25.26
2022-09-03T20:18:26.293Z,25.28
2022-09-03T20:21:10.100Z,25.26
2022-09-03T20:23:51.788Z,25.21
2022-09-03T20:26:25.230Z,25.23
2022-09-03T20:29:18.525Z,25.13
2022-09-03T20:32:05.781Z,25.05
2022-09-03T20:34:44.425Z,25.01
2022-09-03T20:37:36.169Z,24.95
2022-09-03T20:40:07.705Z,24.97
2022-09-03T20:43:08.497Z,24.95
2022-09-03T20:45:50.079Z,24.93
2022-09-03T20:48:23.722Z,24.88
2022-09-03T20:51:01.418Z,24.84
2022-09-03T20:53:55.686Z,24.77
2022-09-03T20:56:37.146Z,24.80
2022-09-03T20:59:12.777Z,24.86
2022-09-03T21:01:51.986Z,24.87
2022-09-03T21:04:51.651Z,24.82
2022-09-03T21:07:27.596Z,24.75
2022-09-03T21:10:31.824Z,24.77
2022-09-03T21:13:38.701Z,24.77
2022-09-03T21:16:38.553Z,24.65
2022-09-03T21:19:26.941Z,24.70
2022-09-03T21:22:12.747Z,24.64
2022-09-03T21:24:53.166Z,24.59
2022-09-03T21:27:35.331Z,24.56
2022-09-03T21:30:08.067Z,24.60
2022-09-03T21:32:41.137Z,24.56
2022-09-03T21:35:28.683Z,24.56
2022-09-03T21:38:00.499Z,24.45
2022-09-03T21:40:31.300Z,24.43
2022-09-03T21:43:24.974Z,24.54
2022-09-03T21:46:11.728Z,24.44
2022-09-03T21:48:42.859Z,24.45
2022-09-03T21:51:26.279Z,24.34
2022-09-03T21:54:13.944Z,24.16
2022-09-03T21:56:59.090Z,24.27
2022-09-03T21:59:50.153Z,24.25
2022-09-03T22:02:25.400Z,24.30
2022-09-03T22:04:53.978Z,24.24
2022-09-03T22:07:30.958Z,24.15
2022-09-03T22:10:00.562Z,24.05
2022-09-03T22:12:43.603Z,24.08
2022-09-03T22:15:13.446Z,24.09
2022-09-03T22:17:47.111Z,24.06
2022-09-03T22:20:15.922Z,24.04
2022-09-03T22:22:44.980Z,24.05
2022-09-03T22:25:24.851Z,24.04
2022-09-03T22:28:03.168Z,23.92
2022-09-03T22:30:40.208Z,23.92
2022-09-03T22:33:21.429Z,23.93
2022-09-03T22:36:10.139Z,23.91
2022-09-03T22:38:45.815Z,23.81
2022-09-03T22:41:50.947Z,23.75
2022-09-03T22:44:47.287Z,23.72
2022-09-03T22:47:37.480Z,23.75
2022-09-03T22:50:28.845Z,23.65
2022-09-03T22:53:13.299Z,23.67
2022-09-03T22:55:49.563Z,23.65
2022-09-03T22:58:25.091Z,23.63
2022-09-03T23:01:07.293Z,23.56
2022-09-03T23:03:43.963Z,23.57
2022-09-03T23:06:32.537Z,23.56
2022-09-03T23:09:03.938Z,23.51
2022-09-03T23:11:42.242Z,23.63
2022-09-03T23:14:12.536Z,23.68
2022-09-03T23:16:41.720Z,23.58
2022-09-03T23:22:04.219Z,23.61
2022-09-03T23:24:49.735Z,23.58
2022-09-03T23:27:26.054Z,23.51
2022-09-03T23:30:00.119Z,23.48
2022-09-03T23:32:33.029Z,23.58
2022-09-03T23:35:03.545Z,23.48
2022-09-03T23:38:11.376Z,23.44
2022-09-03T23:40:51.634Z,23.46
2022-09-03T23:43:40.351Z,23.50
2022-09-03T23:46:25.399Z,23.51
2022-09-03T23:49:01.208Z,23.52
2022-09-03T23:51:36.437Z,23.43
2022-09-03T23:54:32.249Z,23.43
2022-09-03T23:57:31.011Z,23.42
